Helas — C4AZ2 — position and weather

sailwx.info

Track history (hours):
 
Tides and Currents Weather Stations Pressure Air Temp Water Temp Dewpoint Dewpoint Depression Visibility Wind Speed Wind Dir Waves Ship Positions

Helas

Last reported at 2017-Jul-25 16:38 UTC. Time now 2017-Jul-26 00:47 UTC.
Position N 48°17' W 005°43'.

Length 89 m; draft 5.8 m.

Type: Cargo ship. MMSI: 210031000.

Date/timePositionNaut miles runAvg speedWind from/ knotsBaromVisibWave heightAir tempDewpointWater temp
2017-Jul-25 16:38N 48°17' W 005°43'30 7.6
2017-Jul-25 12:40N 48°47' W 005°50'2 9.7
2017-Jul-25 12:30N 48°49' W 005°49'5 9.8
2017-Jul-25 12:00N 48°53' W 005°44'910.6
2017-Jul-25 11:07N 48°58' W 005°32'110.4
2017-Jul-25 10:58N 48°58' W 005°30'610.1
2017-Jul-25 10:25N 49°01' W 005°23'510.1
2017-Jul-25 09:58N 49°03' W 005°17'5 9.5
2017-Jul-25 09:29N 49°06' W 005°11'4 9.0
2017-Jul-25 09:00N 49°08' W 005°05'4 8.5
2017-Jul-25 08:30N 49°10' W 004°59'4 7.7
2017-Jul-25 08:00N 49°12' W 004°54'5 7.4
2017-Jul-25 07:24N 49°14' W 004°48'3 6.5
2017-Jul-25 06:58N 49°15' W 004°45'3 6.6
2017-Jul-25 06:30N 49°17' W 004°41'4 6.4
2017-Jul-25 05:55N 49°19' W 004°36'3 6.1
2017-Jul-25 05:25N 49°21' W 004°32'3 6.7
2017-Jul-25 04:59N 49°22' W 004°28'4 7.0
2017-Jul-25 04:23N 49°24' W 004°22'9 8.4
2017-Jul-25 03:18N 49°29' W 004°10'3 9.7
2017-Jul-25 03:00N 49°30' W 004°06'5 9.9
2017-Jul-25 02:30N 49°33' W 003°60'510.3
2017-Jul-25 02:00N 49°35' W 003°53'610.7
2017-Jul-25 01:29N 49°38' W 003°46'711.0
2017-Jul-25 00:53N 49°41' W 003°37'410.9
2017-Jul-25 00:30N 49°43' W 003°31'510.6
2017-Jul-25 00:00N 49°46' W 003°24'510.1
2017-Jul-24 23:30N 49°49' W 003°17'5 9.4
2017-Jul-24 23:00N 49°51' W 003°11'4 8.7
2017-Jul-24 22:30N 49°53' W 003°05'4 8.1
2017-Jul-24 22:00N 49°55' W 002°60'4 7.3
2017-Jul-24 21:30N 49°57' W 002°55'3 6.9
2017-Jul-24 21:00N 49°58' W 002°50'3 6.4
2017-Jul-24 20:30N 49°59' W 002°45'3 6.1
2017-Jul-24 20:00N 50°00' W 002°41'3 6.2
2017-Jul-24 19:28N 50°01' W 002°36'18 7.6
2017-Jul-24 17:08N 50°06' W 002°09'1 9.6
2017-Jul-24 17:00N 50°07' W 002°07'510.4
2017-Jul-24 16:31N 50°08' W 001°60'611.3
2017-Jul-24 16:00N 50°10' W 001°51'5810.6
2017-Jul-24 10:32N 50°27' W 000°24'0 7.1
2017-Jul-24 10:30N 50°27' W 000°24'4 6.9
2017-Jul-24 09:55N 50°28' W 000°18'3 6.6
2017-Jul-24 09:30N 50°29' W 000°14'3 6.5
2017-Jul-24 09:00N 50°30' W 000°09'3 6.6
2017-Jul-24 08:30N 50°31' W 000°04'3 7.0
2017-Jul-24 08:00N 50°32' E 000°01'4 7.5
2017-Jul-24 07:30N 50°33' E 000°07'4 8.1
2017-Jul-24 07:00N 50°34' E 000°13'4 8.9
2017-Jul-24 06:30N 50°36' E 000°20'5 9.8
2017-Jul-24 06:00N 50°37' E 000°27'510.1
2017-Jul-24 05:30N 50°39' E 000°34'510.5
2017-Jul-24 05:00N 50°42' E 000°41'510.5
2017-Jul-24 04:30N 50°45' E 000°48'510.1
2017-Jul-24 04:00N 50°48' E 000°55'7 9.6
2017-Jul-24 03:14N 50°52' E 001°04'3 9.1
2017-Jul-24 02:55N 50°54' E 001°08'4 8.7
2017-Jul-24 02:30N 50°56' E 001°12'4 7.9
2017-Jul-24 02:00N 50°59' E 001°17'4 6.9
2017-Jul-24 01:30N 51°01' E 001°21'3 5.9
2017-Jul-24 01:00N 51°03' E 001°25'3 5.4
2017-Jul-24 00:30N 51°05' E 001°28'3 5.5
2017-Jul-24 00:00N 51°06' E 001°32'3 5.5
2017-Jul-23 23:30N 51°08' E 001°35'3 6.2
2017-Jul-23 23:00N 51°10' E 001°39'3 7.0
2017-Jul-23 22:30N 51°12' E 001°43'4 8.2
2017-Jul-23 22:00N 51°15' E 001°47'5 9.8
2017-Jul-23 21:30N 51°20' E 001°51'510.9
2017-Jul-23 21:00N 51°24' E 001°56'611.2
2017-Jul-23 20:31N 51°29' E 002°01'611.1
2017-Jul-23 20:00N 51°33' E 002°07'611.0
2017-Jul-23 19:30N 51°37' E 002°13'610.8
2017-Jul-23 18:54N 51°42' E 002°19'76 8.2
2017-Jul-23 09:37N 52°31' E 003°54'3 8.4
2017-Jul-23 09:18N 52°31' E 003°58'3 9.1
2017-Jul-23 09:00N 52°31' E 004°02'4 8.7
2017-Jul-23 08:30N 52°31' E 004°09'4 8.2
2017-Jul-23 08:00N 52°30' E 004°16'4 8.8
2017-Jul-23 07:30N 52°30' E 004°23'4 8.3
2017-Jul-23 07:00N 52°28' E 004°30'4 7.6
2017-Jul-23 06:30N 52°28' E 004°36'1 1.1
2017-Jul-23 06:00N 52°28' E 004°37'1 1.3
2017-Jul-23 05:30N 52°28' E 004°38'0 0.1
2017-Jul-23 05:00N 52°28' E 004°38'0 0.1
2017-Jul-23 04:30N 52°28' E 004°38'0 0.0
2017-Jul-23 04:00N 52°28' E 004°38'0 0.1
2017-Jul-23 03:30N 52°28' E 004°38'0 0.0
2017-Jul-23 03:00N 52°28' E 004°38'0 0.0
2017-Jul-23 02:30N 52°28' E 004°38'0 0.0
2017-Jul-23 02:00N 52°28' E 004°38'0 0.0
2017-Jul-23 01:30N 52°28' E 004°38'0 0.0
2017-Jul-23 01:00N 52°28' E 004°38'0 0.0
2017-Jul-23 00:30N 52°28' E 004°38'0 0.0
2017-Jul-23 00:00N 52°28' E 004°38'0 0.0
2017-Jul-22 23:27N 52°28' E 004°38'0 0.0
2017-Jul-22 23:00N 52°28' E 004°38'0 0.0
2017-Jul-22 22:30N 52°28' E 004°38'0 0.0
2017-Jul-22 22:00N 52°28' E 004°38'0 0.1
2017-Jul-22 21:30N 52°28' E 004°38'0 0.1
2017-Jul-22 21:00N 52°28' E 004°38'0 0.0
2017-Jul-22 20:30N 52°28' E 004°38'0 0.0
2017-Jul-22 20:00N 52°28' E 004°38'0 0.0
2017-Jul-22 19:29N 52°28' E 004°38'0 0.0
2017-Jul-22 18:59N 52°28' E 004°38'0 0.0
2017-Jul-22 18:26N 52°28' E 004°38'0 0.0
2017-Jul-22 17:56N 52°28' E 004°38'0 0.0
2017-Jul-22 17:29N 52°28' E 004°38'0 0.0
2017-Jul-22 16:59N 52°28' E 004°38'0 0.0
2017-Jul-22 16:29N 52°28' E 004°38'0 0.0
2017-Jul-22 15:59N 52°28' E 004°38'0 0.0
2017-Jul-22 15:29N 52°28' E 004°38'0 0.0
2017-Jul-22 14:59N 52°28' E 004°38'0 0.0
2017-Jul-22 14:00N 52°28' E 004°38'0 0.1
2017-Jul-22 13:31N 52°28' E 004°38'1 2.0
2017-Jul-22 13:01N 52°28' E 004°36'1 1.1
2017-Jul-22 12:30N 52°28' E 004°36'0 1.0
2017-Jul-22 11:59N 52°28' E 004°36'0 0.0
2017-Jul-22 11:29N 52°28' E 004°36'0 0.0
2017-Jul-22 10:59N 52°28' E 004°36'0 0.0
2017-Jul-22 10:29N 52°28' E 004°36'0 0.0
2017-Jul-22 09:59N 52°28' E 004°36'0 0.0
2017-Jul-22 09:29N 52°28' E 004°36'0 0.0
2017-Jul-22 08:59N 52°28' E 004°36'0 0.0
2017-Jul-22 08:29N 52°28' E 004°36'0 0.0
2017-Jul-22 07:59N 52°28' E 004°36'0 0.0
2017-Jul-22 07:29N 52°28' E 004°36'0 0.0
2017-Jul-22 06:59N 52°28' E 004°36'0 0.0
2017-Jul-22 06:29N 52°28' E 004°36'0 0.0
2017-Jul-22 05:59N 52°28' E 004°36'0 0.0
2017-Jul-22 05:26N 52°28' E 004°36'0 0.0
2017-Jul-22 04:59N 52°28' E 004°36'0 0.0
2017-Jul-22 04:29N 52°28' E 004°36'0 0.1
2017-Jul-22 03:59N 52°28' E 004°36'0 0.1
2017-Jul-22 03:29N 52°28' E 004°36'0 0.0
2017-Jul-22 02:59N 52°28' E 004°36'0 0.0
2017-Jul-22 02:29N 52°28' E 004°36'0 0.0
2017-Jul-22 01:59N 52°28' E 004°36'0 0.0
2017-Jul-22 01:29N 52°28' E 004°36'0 0.0
2017-Jul-22 00:59N 52°28' E 004°36'0 0.0
2017-Jul-22 00:29N 52°28' E 004°36'0 0.0
2017-Jul-21 23:56N 52°28' E 004°36'0 0.0
2017-Jul-21 23:29N 52°28' E 004°36'0 0.0
2017-Jul-21 22:59N 52°28' E 004°36'0 0.0
2017-Jul-21 22:29N 52°28' E 004°36'0 0.0
2017-Jul-21 21:59N 52°28' E 004°36'0 0.0
2017-Jul-21 21:29N 52°28' E 004°36'0 0.0
2017-Jul-21 20:59N 52°28' E 004°36'0 0.0
2017-Jul-21 20:29N 52°28' E 004°36'0 0.0
2017-Jul-21 19:59N 52°28' E 004°36'0 0.0
2017-Jul-21 19:29N 52°28' E 004°36'0 0.0
2017-Jul-21 18:59N 52°28' E 004°36'0 0.0
2017-Jul-21 18:29N 52°28' E 004°36'0 0.0
2017-Jul-21 17:59N 52°28' E 004°36'0 0.0
2017-Jul-21 17:29N 52°28' E 004°36'0 0.0
2017-Jul-21 16:59N 52°28' E 004°36'0 0.0
2017-Jul-21 16:29N 52°28' E 004°36'0 0.0
2017-Jul-21 15:59N 52°28' E 004°36'0 0.0
2017-Jul-21 15:29N 52°28' E 004°36'0 0.0
2017-Jul-21 14:59N 52°28' E 004°36'0 0.0
2017-Jul-21 14:29N 52°28' E 004°36'0 0.0
2017-Jul-21 13:59N 52°28' E 004°36'0 0.0
2017-Jul-21 13:29N 52°28' E 004°36'0 0.0
2017-Jul-21 12:59N 52°28' E 004°36'0 0.0
2017-Jul-21 12:29N 52°28' E 004°36'0 0.0
2017-Jul-21 11:59N 52°28' E 004°36'0 0.0
2017-Jul-21 11:29N 52°28' E 004°36'0 0.0
2017-Jul-21 10:59N 52°28' E 004°36'0 0.0
2017-Jul-21 10:29N 52°28' E 004°36'0 0.0
2017-Jul-21 09:59N 52°28' E 004°36'0 0.0
2017-Jul-21 09:29N 52°28' E 004°36'0 0.0
2017-Jul-21 08:59N 52°28' E 004°36'0 0.0
2017-Jul-21 08:29N 52°28' E 004°36'0 0.0
2017-Jul-21 07:59N 52°28' E 004°36'0 0.0
2017-Jul-21 07:28N 52°28' E 004°36'0 0.0
2017-Jul-21 06:52N 52°28' E 004°36'0 0.0
2017-Jul-21 06:28N 52°28' E 004°36'0 0.0
2017-Jul-21 05:58N 52°28' E 004°36'0 0.0
2017-Jul-21 05:28N 52°28' E 004°36'0 0.3
2017-Jul-21 04:58N 52°28' E 004°36'0 0.0
2017-Jul-21 04:29N 52°28' E 004°36'0 0.0
2017-Jul-21 04:01N 52°28' E 004°36'0 0.0
2017-Jul-21 03:30N 52°28' E 004°36'0 0.0
2017-Jul-21 03:00N 52°28' E 004°36'0 0.0
2017-Jul-21 02:30N 52°28' E 004°36'0 0.0
2017-Jul-21 02:01N 52°28' E 004°36'0 0.0
2017-Jul-21 01:30N 52°28' E 004°36'0 0.0
2017-Jul-21 01:00N 52°28' E 004°36'0 0.0
2017-Jul-21 00:31N 52°28' E 004°36'0 0.0
2017-Jul-21 00:00N 52°28' E 004°36'0 0.0
2017-Jul-20 23:30N 52°28' E 004°36'0 0.0
2017-Jul-20 23:00N 52°28' E 004°36'0 0.0
2017-Jul-20 22:30N 52°28' E 004°36'0 0.0
2017-Jul-20 22:00N 52°28' E 004°36'0 0.0
2017-Jul-20 21:30N 52°28' E 004°36'0 0.0
2017-Jul-20 21:00N 52°28' E 004°36'0 0.0
2017-Jul-20 20:30N 52°28' E 004°36'0 0.0
2017-Jul-20 20:00N 52°28' E 004°36'0 0.0
2017-Jul-20 19:31N 52°28' E 004°36'0 0.0
2017-Jul-20 19:00N 52°28' E 004°36'0 0.0
2017-Jul-20 18:30N 52°28' E 004°36'0 0.0
2017-Jul-20 18:00N 52°28' E 004°36'0 0.0
2017-Jul-20 17:30N 52°28' E 004°36'0 0.0
2017-Jul-20 17:00N 52°28' E 004°36'0 0.0
2017-Jul-20 16:30N 52°28' E 004°36'0 0.0
2017-Jul-20 16:00N 52°28' E 004°36'0 0.0
2017-Jul-20 15:30N 52°28' E 004°36'0 0.0
2017-Jul-20 15:00N 52°28' E 004°36'0 0.0
2017-Jul-20 14:01N 52°28' E 004°36'0 0.0
2017-Jul-20 13:30N 52°28' E 004°36'0 0.0
2017-Jul-20 13:00N 52°28' E 004°36'0 0.0
2017-Jul-20 12:31N 52°28' E 004°36'0 0.0
2017-Jul-20 12:00N 52°28' E 004°36'0 0.0
2017-Jul-20 11:31N 52°28' E 004°36'0 0.1
2017-Jul-20 11:01N 52°28' E 004°36'3 6.1
2017-Jul-20 10:30N 52°28' E 004°31'5 9.5
2017-Jul-20 10:00N 52°28' E 004°23'4 8.8
2017-Jul-20 09:30N 52°29' E 004°16'5 9.2
2017-Jul-20 09:00N 52°29' E 004°09'5 9.2
2017-Jul-20 08:30N 52°27' E 004°01'4 8.8
2017-Jul-20 08:00N 52°26' E 003°54'9 8.6
2017-Jul-20 06:55N 52°21' E 003°41'59 8.7
2017-Jul-20 00:06N 51°41' E 002°31'210.0
2017-Jul-19 23:55N 51°39' E 002°29'410.1
2017-Jul-19 23:29N 51°36' E 002°25'510.5
2017-Jul-19 23:00N 51°32' E 002°20'510.3
2017-Jul-19 22:30N 51°28' E 002°15'510.5
2017-Jul-19 22:00N 51°23' E 002°11'510.6
2017-Jul-19 21:30N 51°18' E 002°08'510.9
2017-Jul-19 21:00N 51°14' E 002°03'611.1
2017-Jul-19 20:30N 51°10' E 001°56'611.2
2017-Jul-19 20:00N 51°07' E 001°49'611.4
2017-Jul-19 19:30N 51°03' E 001°43'611.8
2017-Jul-19 19:00N 50°58' E 001°36'611.3
2017-Jul-19 18:30N 50°54' E 001°30'62 8.5
2017-Jul-19 11:13N 50°19' E 000°10'2 8.1
2017-Jul-19 11:00N 50°18' E 000°08'4 8.2
2017-Jul-19 10:28N 50°17' E 000°01'5 8.2
2017-Jul-19 09:54N 50°16' W 000°06'7 8.2
2017-Jul-19 09:00N 50°14' W 000°17'26 8.8
2017-Jul-19 06:05N 50°08' W 000°56'110.0
2017-Jul-19 06:00N 50°08' W 000°57'510.2
2017-Jul-19 05:30N 50°06' W 001°05'510.7
2017-Jul-19 05:00N 50°05' W 001°13'511.0
2017-Jul-19 04:30N 50°03' W 001°21'611.4
2017-Jul-19 04:00N 50°02' W 001°30'611.4
2017-Jul-19 03:30N 50°00' W 001°38'611.7
2017-Jul-19 03:01N 49°59' W 001°47'611.5
2017-Jul-19 02:30N 49°57' W 001°56'610.8
2017-Jul-19 01:55N 49°56' W 002°05'16 8.7
2017-Jul-19 00:05N 49°52' W 002°29'1 7.3
2017-Jul-19 00:00N 49°51' W 002°30'4 7.2
2017-Jul-18 23:30N 49°50' W 002°35'3 7.0
2017-Jul-18 23:00N 49°49' W 002°41'4 7.0
2017-Jul-18 22:30N 49°49' W 002°46'3 6.5
2017-Jul-18 22:00N 49°48' W 002°51'3 6.2
2017-Jul-18 21:30N 49°46' W 002°55'3 6.3
2017-Jul-18 20:59N 49°44' W 002°59'3 6.7
2017-Jul-18 20:30N 49°43' W 003°03'3 6.9
2017-Jul-18 20:00N 49°41' W 003°08'3 5.5
2017-Jul-18 19:28N 49°40' W 003°12'1 1.8
2017-Jul-18 18:58N 49°40' W 003°11'1 1.6
2017-Jul-18 18:28N 49°41' W 003°10'1 1.4
2017-Jul-18 17:58N 49°41' W 003°09'0 0.2
2017-Jul-18 17:30N 49°41' W 003°09'4 7.9
2017-Jul-18 17:00N 49°39' W 003°14'4 8.2
2017-Jul-18 16:30N 49°37' W 003°20'4 8.3
2017-Jul-18 16:01N 49°35' W 003°25'4 8.3
2017-Jul-18 15:30N 49°33' W 003°31'4 8.5
2017-Jul-18 15:01N 49°30' W 003°36'58 9.2
2017-Jul-18 08:43N 49°02' W 004°53'4 9.4
2017-Jul-18 08:18N 48°60' W 004°58'3 8.9
2017-Jul-18 08:00N 48°58' W 005°02'4 8.8
2017-Jul-18 07:30N 48°56' W 005°08'4 8.6
2017-Jul-18 07:00N 48°54' W 005°13'4 8.6
2017-Jul-18 06:30N 48°52' W 005°19'4 8.1
2017-Jul-18 06:00N 48°50' W 005°24'4 8.0
2017-Jul-18 05:30N 48°48' W 005°29'4 7.8
2017-Jul-18 05:00N 48°46' W 005°35'4 7.7
2017-Jul-18 04:30N 48°42' W 005°38'4 7.8
2017-Jul-18 04:00N 48°39' W 005°41'4 7.6
2017-Jul-18 03:30N 48°36' W 005°43'4 7.8
2017-Jul-18 02:59N 48°32' W 005°46'4 7.8
2017-Jul-18 02:30N 48°29' W 005°49'5 8.1
2017-Jul-18 01:54N 48°24' W 005°46'7 8.0
2017-Jul-18 00:59N 48°17' W 005°42'10 8.5
2017-Jul-17 23:48N 48°08' W 005°37'7 8.7
2017-Jul-17 22:58N 48°01' W 005°33'9 8.4
2017-Jul-17 21:54N 47°52' W 005°29'6 8.4
2017-Jul-17 21:11N 47°47' W 005°26'4 8.4
2017-Jul-17 20:44N 47°43' W 005°24'2 8.6
2017-Jul-17 20:30N 47°41' W 005°23'4 9.0
2017-Jul-17 20:00N 47°37' W 005°20'5 9.6
2017-Jul-17 19:30N 47°33' W 005°18'4 9.0
2017-Jul-17 19:00N 47°29' W 005°15'15 8.7
2017-Jul-17 17:14N 47°14' W 005°08'3 8.5
2017-Jul-17 16:53N 47°11' W 005°06'4 8.6
2017-Jul-17 16:25N 47°08' W 005°04'4 8.9
2017-Jul-17 15:56N 47°03' W 005°02'13 9.1
2017-Jul-17 14:27N 46°51' W 004°55'  
Track history (hours):
 
Tides and Currents Weather Stations Pressure Air Temp Water Temp Dewpoint Dewpoint Depression Visibility Wind Speed Wind Dir Waves Ship Positions

Helas

Last reported at 2017-Jul-25 16:38 UTC. Time now 2017-Jul-26 00:47 UTC.
Position N 48°17' W 005°43'.

Length 89 m; draft 5.8 m.

Type: Cargo ship. MMSI: 210031000.

Date/timePositionNaut miles runAvg speedWind from/ knotsBaromVisibWave heightAir tempDewpointWater temp
2017-Jul-25 16:38N 48°17' W 005°43'30 7.6
2017-Jul-25 12:40N 48°47' W 005°50'2 9.7
2017-Jul-25 12:30N 48°49' W 005°49'5 9.8
2017-Jul-25 12:00N 48°53' W 005°44'910.6
2017-Jul-25 11:07N 48°58' W 005°32'110.4
2017-Jul-25 10:58N 48°58' W 005°30'610.1
2017-Jul-25 10:25N 49°01' W 005°23'510.1
2017-Jul-25 09:58N 49°03' W 005°17'5 9.5
2017-Jul-25 09:29N 49°06' W 005°11'4 9.0
2017-Jul-25 09:00N 49°08' W 005°05'4 8.5
2017-Jul-25 08:30N 49°10' W 004°59'4 7.7
2017-Jul-25 08:00N 49°12' W 004°54'5 7.4
2017-Jul-25 07:24N 49°14' W 004°48'3 6.5
2017-Jul-25 06:58N 49°15' W 004°45'3 6.6
2017-Jul-25 06:30N 49°17' W 004°41'4 6.4
2017-Jul-25 05:55N 49°19' W 004°36'3 6.1
2017-Jul-25 05:25N 49°21' W 004°32'3 6.7
2017-Jul-25 04:59N 49°22' W 004°28'4 7.0
2017-Jul-25 04:23N 49°24' W 004°22'9 8.4
2017-Jul-25 03:18N 49°29' W 004°10'3 9.7
2017-Jul-25 03:00N 49°30' W 004°06'5 9.9
2017-Jul-25 02:30N 49°33' W 003°60'510.3
2017-Jul-25 02:00N 49°35' W 003°53'610.7
2017-Jul-25 01:29N 49°38' W 003°46'711.0
2017-Jul-25 00:53N 49°41' W 003°37'410.9
2017-Jul-25 00:30N 49°43' W 003°31'510.6
2017-Jul-25 00:00N 49°46' W 003°24'510.1
2017-Jul-24 23:30N 49°49' W 003°17'5 9.4
2017-Jul-24 23:00N 49°51' W 003°11'4 8.7
2017-Jul-24 22:30N 49°53' W 003°05'4 8.1
2017-Jul-24 22:00N 49°55' W 002°60'4 7.3
2017-Jul-24 21:30N 49°57' W 002°55'3 6.9
2017-Jul-24 21:00N 49°58' W 002°50'3 6.4
2017-Jul-24 20:30N 49°59' W 002°45'3 6.1
2017-Jul-24 20:00N 50°00' W 002°41'3 6.2
2017-Jul-24 19:28N 50°01' W 002°36'18 7.6
2017-Jul-24 17:08N 50°06' W 002°09'1 9.6
2017-Jul-24 17:00N 50°07' W 002°07'510.4
2017-Jul-24 16:31N 50°08' W 001°60'611.3
2017-Jul-24 16:00N 50°10' W 001°51'5810.6
2017-Jul-24 10:32N 50°27' W 000°24'0 7.1
2017-Jul-24 10:30N 50°27' W 000°24'4 6.9
2017-Jul-24 09:55N 50°28' W 000°18'3 6.6
2017-Jul-24 09:30N 50°29' W 000°14'3 6.5
2017-Jul-24 09:00N 50°30' W 000°09'3 6.6
2017-Jul-24 08:30N 50°31' W 000°04'3 7.0
2017-Jul-24 08:00N 50°32' E 000°01'4 7.5
2017-Jul-24 07:30N 50°33' E 000°07'4 8.1
2017-Jul-24 07:00N 50°34' E 000°13'4 8.9
2017-Jul-24 06:30N 50°36' E 000°20'5 9.8
2017-Jul-24 06:00N 50°37' E 000°27'510.1
2017-Jul-24 05:30N 50°39' E 000°34'510.5
2017-Jul-24 05:00N 50°42' E 000°41'510.5
2017-Jul-24 04:30N 50°45' E 000°48'510.1
2017-Jul-24 04:00N 50°48' E 000°55'7 9.6
2017-Jul-24 03:14N 50°52' E 001°04'3 9.1
2017-Jul-24 02:55N 50°54' E 001°08'4 8.7
2017-Jul-24 02:30N 50°56' E 001°12'4 7.9
2017-Jul-24 02:00N 50°59' E 001°17'4 6.9
2017-Jul-24 01:30N 51°01' E 001°21'3 5.9
2017-Jul-24 01:00N 51°03' E 001°25'3 5.4
2017-Jul-24 00:30N 51°05' E 001°28'3 5.5
2017-Jul-24 00:00N 51°06' E 001°32'3 5.5
2017-Jul-23 23:30N 51°08' E 001°35'3 6.2
2017-Jul-23 23:00N 51°10' E 001°39'3 7.0
2017-Jul-23 22:30N 51°12' E 001°43'4 8.2
2017-Jul-23 22:00N 51°15' E 001°47'5 9.8
2017-Jul-23 21:30N 51°20' E 001°51'510.9
2017-Jul-23 21:00N 51°24' E 001°56'611.2
2017-Jul-23 20:31N 51°29' E 002°01'611.1
2017-Jul-23 20:00N 51°33' E 002°07'611.0
2017-Jul-23 19:30N 51°37' E 002°13'610.8
2017-Jul-23 18:54N 51°42' E 002°19'76 8.2
2017-Jul-23 09:37N 52°31' E 003°54'3 8.4
2017-Jul-23 09:18N 52°31' E 003°58'3 9.1
2017-Jul-23 09:00N 52°31' E 004°02'4 8.7
2017-Jul-23 08:30N 52°31' E 004°09'4 8.2
2017-Jul-23 08:00N 52°30' E 004°16'4 8.8
2017-Jul-23 07:30N 52°30' E 004°23'4 8.3
2017-Jul-23 07:00N 52°28' E 004°30'4 7.6
2017-Jul-23 06:30N 52°28' E 004°36'1 1.1
2017-Jul-23 06:00N 52°28' E 004°37'1 1.3
2017-Jul-23 05:30N 52°28' E 004°38'0 0.1
2017-Jul-23 05:00N 52°28' E 004°38'0 0.1
2017-Jul-23 04:30N 52°28' E 004°38'0 0.0
2017-Jul-23 04:00N 52°28' E 004°38'0 0.1
2017-Jul-23 03:30N 52°28' E 004°38'0 0.0
2017-Jul-23 03:00N 52°28' E 004°38'0 0.0
2017-Jul-23 02:30N 52°28' E 004°38'0 0.0
2017-Jul-23 02:00N 52°28' E 004°38'0 0.0
2017-Jul-23 01:30N 52°28' E 004°38'0 0.0
2017-Jul-23 01:00N 52°28' E 004°38'0 0.0
2017-Jul-23 00:30N 52°28' E 004°38'0 0.0
2017-Jul-23 00:00N 52°28' E 004°38'0 0.0
2017-Jul-22 23:27N 52°28' E 004°38'0 0.0
2017-Jul-22 23:00N 52°28' E 004°38'0 0.0
2017-Jul-22 22:30N 52°28' E 004°38'0 0.0
2017-Jul-22 22:00N 52°28' E 004°38'0 0.1
2017-Jul-22 21:30N 52°28' E 004°38'0 0.1
2017-Jul-22 21:00N 52°28' E 004°38'0 0.0
2017-Jul-22 20:30N 52°28' E 004°38'0 0.0
2017-Jul-22 20:00N 52°28' E 004°38'0 0.0
2017-Jul-22 19:29N 52°28' E 004°38'0 0.0
2017-Jul-22 18:59N 52°28' E 004°38'0 0.0
2017-Jul-22 18:26N 52°28' E 004°38'0 0.0
2017-Jul-22 17:56N 52°28' E 004°38'0 0.0
2017-Jul-22 17:29N 52°28' E 004°38'0 0.0
2017-Jul-22 16:59N 52°28' E 004°38'0 0.0
2017-Jul-22 16:29N 52°28' E 004°38'0 0.0
2017-Jul-22 15:59N 52°28' E 004°38'0 0.0
2017-Jul-22 15:29N 52°28' E 004°38'0 0.0
2017-Jul-22 14:59N 52°28' E 004°38'0 0.0
2017-Jul-22 14:00N 52°28' E 004°38'0 0.1
2017-Jul-22 13:31N 52°28' E 004°38'1 2.0
2017-Jul-22 13:01N 52°28' E 004°36'1 1.1
2017-Jul-22 12:30N 52°28' E 004°36'0 1.0
2017-Jul-22 11:59N 52°28' E 004°36'0 0.0
2017-Jul-22 11:29N 52°28' E 004°36'0 0.0
2017-Jul-22 10:59N 52°28' E 004°36'0 0.0
2017-Jul-22 10:29N 52°28' E 004°36'0 0.0
2017-Jul-22 09:59N 52°28' E 004°36'0 0.0
2017-Jul-22 09:29N 52°28' E 004°36'0 0.0
2017-Jul-22 08:59N 52°28' E 004°36'0 0.0
2017-Jul-22 08:29N 52°28' E 004°36'0 0.0
2017-Jul-22 07:59N 52°28' E 004°36'0 0.0
2017-Jul-22 07:29N 52°28' E 004°36'0 0.0
2017-Jul-22 06:59N 52°28' E 004°36'0 0.0
2017-Jul-22 06:29N 52°28' E 004°36'0 0.0
2017-Jul-22 05:59N 52°28' E 004°36'0 0.0
2017-Jul-22 05:26N 52°28' E 004°36'0 0.0
2017-Jul-22 04:59N 52°28' E 004°36'0 0.0
2017-Jul-22 04:29N 52°28' E 004°36'0 0.1
2017-Jul-22 03:59N 52°28' E 004°36'0 0.1
2017-Jul-22 03:29N 52°28' E 004°36'0 0.0
2017-Jul-22 02:59N 52°28' E 004°36'0 0.0
2017-Jul-22 02:29N 52°28' E 004°36'0 0.0
2017-Jul-22 01:59N 52°28' E 004°36'0 0.0
2017-Jul-22 01:29N 52°28' E 004°36'0 0.0
2017-Jul-22 00:59N 52°28' E 004°36'0 0.0
2017-Jul-22 00:29N 52°28' E 004°36'0 0.0
2017-Jul-21 23:56N 52°28' E 004°36'0 0.0
2017-Jul-21 23:29N 52°28' E 004°36'0 0.0
2017-Jul-21 22:59N 52°28' E 004°36'0 0.0
2017-Jul-21 22:29N 52°28' E 004°36'0 0.0
2017-Jul-21 21:59N 52°28' E 004°36'0 0.0
2017-Jul-21 21:29N 52°28' E 004°36'0 0.0
2017-Jul-21 20:59N 52°28' E 004°36'0 0.0
2017-Jul-21 20:29N 52°28' E 004°36'0 0.0
2017-Jul-21 19:59N 52°28' E 004°36'0 0.0
2017-Jul-21 19:29N 52°28' E 004°36'0 0.0
2017-Jul-21 18:59N 52°28' E 004°36'0 0.0
2017-Jul-21 18:29N 52°28' E 004°36'0 0.0
2017-Jul-21 17:59N 52°28' E 004°36'0 0.0
2017-Jul-21 17:29N 52°28' E 004°36'0 0.0
2017-Jul-21 16:59N 52°28' E 004°36'0 0.0
2017-Jul-21 16:29N 52°28' E 004°36'0 0.0
2017-Jul-21 15:59N 52°28' E 004°36'0 0.0
2017-Jul-21 15:29N 52°28' E 004°36'0 0.0
2017-Jul-21 14:59N 52°28' E 004°36'0 0.0
2017-Jul-21 14:29N 52°28' E 004°36'0 0.0
2017-Jul-21 13:59N 52°28' E 004°36'0 0.0
2017-Jul-21 13:29N 52°28' E 004°36'0 0.0
2017-Jul-21 12:59N 52°28' E 004°36'0 0.0
2017-Jul-21 12:29N 52°28' E 004°36'0 0.0
2017-Jul-21 11:59N 52°28' E 004°36'0 0.0
2017-Jul-21 11:29N 52°28' E 004°36'0 0.0
2017-Jul-21 10:59N 52°28' E 004°36'0 0.0
2017-Jul-21 10:29N 52°28' E 004°36'0 0.0
2017-Jul-21 09:59N 52°28' E 004°36'0 0.0
2017-Jul-21 09:29N 52°28' E 004°36'0 0.0
2017-Jul-21 08:59N 52°28' E 004°36'0 0.0
2017-Jul-21 08:29N 52°28' E 004°36'0 0.0
2017-Jul-21 07:59N 52°28' E 004°36'0 0.0
2017-Jul-21 07:28N 52°28' E 004°36'0 0.0
2017-Jul-21 06:52N 52°28' E 004°36'0 0.0
2017-Jul-21 06:28N 52°28' E 004°36'0 0.0
2017-Jul-21 05:58N 52°28' E 004°36'0 0.0
2017-Jul-21 05:28N 52°28' E 004°36'0 0.3
2017-Jul-21 04:58N 52°28' E 004°36'0 0.0
2017-Jul-21 04:29N 52°28' E 004°36'0 0.0
2017-Jul-21 04:01N 52°28' E 004°36'0 0.0
2017-Jul-21 03:30N 52°28' E 004°36'0 0.0
2017-Jul-21 03:00N 52°28' E 004°36'0 0.0
2017-Jul-21 02:30N 52°28' E 004°36'0 0.0
2017-Jul-21 02:01N 52°28' E 004°36'0 0.0
2017-Jul-21 01:30N 52°28' E 004°36'0 0.0
2017-Jul-21 01:00N 52°28' E 004°36'0 0.0
2017-Jul-21 00:31N 52°28' E 004°36'0 0.0
2017-Jul-21 00:00N 52°28' E 004°36'0 0.0
2017-Jul-20 23:30N 52°28' E 004°36'0 0.0
2017-Jul-20 23:00N 52°28' E 004°36'0 0.0
2017-Jul-20 22:30N 52°28' E 004°36'0 0.0
2017-Jul-20 22:00N 52°28' E 004°36'0 0.0
2017-Jul-20 21:30N 52°28' E 004°36'0 0.0
2017-Jul-20 21:00N 52°28' E 004°36'0 0.0
2017-Jul-20 20:30N 52°28' E 004°36'0 0.0
2017-Jul-20 20:00N 52°28' E 004°36'0 0.0
2017-Jul-20 19:31N 52°28' E 004°36'0 0.0
2017-Jul-20 19:00N 52°28' E 004°36'0 0.0
2017-Jul-20 18:30N 52°28' E 004°36'0 0.0
2017-Jul-20 18:00N 52°28' E 004°36'0 0.0
2017-Jul-20 17:30N 52°28' E 004°36'0 0.0
2017-Jul-20 17:00N 52°28' E 004°36'0 0.0
2017-Jul-20 16:30N 52°28' E 004°36'0 0.0
2017-Jul-20 16:00N 52°28' E 004°36'0 0.0
2017-Jul-20 15:30N 52°28' E 004°36'0 0.0
2017-Jul-20 15:00N 52°28' E 004°36'0 0.0
2017-Jul-20 14:01N 52°28' E 004°36'0 0.0
2017-Jul-20 13:30N 52°28' E 004°36'0 0.0
2017-Jul-20 13:00N 52°28' E 004°36'0 0.0
2017-Jul-20 12:31N 52°28' E 004°36'0 0.0
2017-Jul-20 12:00N 52°28' E 004°36'0 0.0
2017-Jul-20 11:31N 52°28' E 004°36'0 0.1
2017-Jul-20 11:01N 52°28' E 004°36'3 6.1
2017-Jul-20 10:30N 52°28' E 004°31'5 9.5
2017-Jul-20 10:00N 52°28' E 004°23'4 8.8
2017-Jul-20 09:30N 52°29' E 004°16'5 9.2
2017-Jul-20 09:00N 52°29' E 004°09'5 9.2
2017-Jul-20 08:30N 52°27' E 004°01'4 8.8
2017-Jul-20 08:00N 52°26' E 003°54'9 8.6
2017-Jul-20 06:55N 52°21' E 003°41'59 8.7
2017-Jul-20 00:06N 51°41' E 002°31'210.0
2017-Jul-19 23:55N 51°39' E 002°29'410.1
2017-Jul-19 23:29N 51°36' E 002°25'510.5
2017-Jul-19 23:00N 51°32' E 002°20'510.3
2017-Jul-19 22:30N 51°28' E 002°15'510.5
2017-Jul-19 22:00N 51°23' E 002°11'510.6
2017-Jul-19 21:30N 51°18' E 002°08'510.9
2017-Jul-19 21:00N 51°14' E 002°03'611.1
2017-Jul-19 20:30N 51°10' E 001°56'611.2
2017-Jul-19 20:00N 51°07' E 001°49'611.4
2017-Jul-19 19:30N 51°03' E 001°43'611.8
2017-Jul-19 19:00N 50°58' E 001°36'611.3
2017-Jul-19 18:30N 50°54' E 001°30'62 8.5
2017-Jul-19 11:13N 50°19' E 000°10'2 8.1
2017-Jul-19 11:00N 50°18' E 000°08'4 8.2
2017-Jul-19 10:28N 50°17' E 000°01'5 8.2
2017-Jul-19 09:54N 50°16' W 000°06'7 8.2
2017-Jul-19 09:00N 50°14' W 000°17'26 8.8
2017-Jul-19 06:05N 50°08' W 000°56'110.0
2017-Jul-19 06:00N 50°08' W 000°57'510.2
2017-Jul-19 05:30N 50°06' W 001°05'510.7
2017-Jul-19 05:00N 50°05' W 001°13'511.0
2017-Jul-19 04:30N 50°03' W 001°21'611.4
2017-Jul-19 04:00N 50°02' W 001°30'611.4
2017-Jul-19 03:30N 50°00' W 001°38'611.7
2017-Jul-19 03:01N 49°59' W 001°47'611.5
2017-Jul-19 02:30N 49°57' W 001°56'610.8
2017-Jul-19 01:55N 49°56' W 002°05'16 8.7
2017-Jul-19 00:05N 49°52' W 002°29'1 7.3
2017-Jul-19 00:00N 49°51' W 002°30'4 7.2
2017-Jul-18 23:30N 49°50' W 002°35'3 7.0
2017-Jul-18 23:00N 49°49' W 002°41'4 7.0
2017-Jul-18 22:30N 49°49' W 002°46'3 6.5
2017-Jul-18 22:00N 49°48' W 002°51'3 6.2
2017-Jul-18 21:30N 49°46' W 002°55'3 6.3
2017-Jul-18 20:59N 49°44' W 002°59'3 6.7
2017-Jul-18 20:30N 49°43' W 003°03'3 6.9
2017-Jul-18 20:00N 49°41' W 003°08'3 5.5
2017-Jul-18 19:28N 49°40' W 003°12'1 1.8
2017-Jul-18 18:58N 49°40' W 003°11'1 1.6
2017-Jul-18 18:28N 49°41' W 003°10'1 1.4
2017-Jul-18 17:58N 49°41' W 003°09'0 0.2
2017-Jul-18 17:30N 49°41' W 003°09'4 7.9
2017-Jul-18 17:00N 49°39' W 003°14'4 8.2
2017-Jul-18 16:30N 49°37' W 003°20'4 8.3
2017-Jul-18 16:01N 49°35' W 003°25'4 8.3
2017-Jul-18 15:30N 49°33' W 003°31'4 8.5
2017-Jul-18 15:01N 49°30' W 003°36'58 9.2
2017-Jul-18 08:43N 49°02' W 004°53'4 9.4
2017-Jul-18 08:18N 48°60' W 004°58'3 8.9
2017-Jul-18 08:00N 48°58' W 005°02'4 8.8
2017-Jul-18 07:30N 48°56' W 005°08'4 8.6
2017-Jul-18 07:00N 48°54' W 005°13'4 8.6
2017-Jul-18 06:30N 48°52' W 005°19'4 8.1
2017-Jul-18 06:00N 48°50' W 005°24'4 8.0
2017-Jul-18 05:30N 48°48' W 005°29'4 7.8
2017-Jul-18 05:00N 48°46' W 005°35'4 7.7
2017-Jul-18 04:30N 48°42' W 005°38'4 7.8
2017-Jul-18 04:00N 48°39' W 005°41'4 7.6
2017-Jul-18 03:30N 48°36' W 005°43'4 7.8
2017-Jul-18 02:59N 48°32' W 005°46'4 7.8
2017-Jul-18 02:30N 48°29' W 005°49'5 8.1
2017-Jul-18 01:54N 48°24' W 005°46'7 8.0
2017-Jul-18 00:59N 48°17' W 005°42'10 8.5
2017-Jul-17 23:48N 48°08' W 005°37'7 8.7
2017-Jul-17 22:58N 48°01' W 005°33'9 8.4
2017-Jul-17 21:54N 47°52' W 005°29'6 8.4
2017-Jul-17 21:11N 47°47' W 005°26'4 8.4
2017-Jul-17 20:44N 47°43' W 005°24'2 8.6
2017-Jul-17 20:30N 47°41' W 005°23'4 9.0
2017-Jul-17 20:00N 47°37' W 005°20'5 9.6
2017-Jul-17 19:30N 47°33' W 005°18'4 9.0
2017-Jul-17 19:00N 47°29' W 005°15'15 8.7
2017-Jul-17 17:14N 47°14' W 005°08'3 8.5
2017-Jul-17 16:53N 47°11' W 005°06'4 8.6
2017-Jul-17 16:25N 47°08' W 005°04'4 8.9
2017-Jul-17 15:56N 47°03' W 005°02'13 9.1
2017-Jul-17 14:27N 46°51' W 004°55'  

Dump ship's entire track history